Time;durP1;ratioP1;P1;durP2;ratioP2;P2;SDS_P1;SDS_P2;PMS_P1;PMS_P2;Temp;Humidity;BMP_temperature;BMP_pressure;BME280_temperature;BME280_humidity;BME280_pressure;Samples;Min_cycle;Max_cycle;Signal;HPM_P1;HPM_P2
2021/11/19 00:00:30;;;;;;;;;;;;;;;3.82;93.23;101984.78;20939295;28;20045;-69
2021/11/19 00:10:33;;;;;;;29.00;14.23;;;;;;;4.05;92.64;101989.94;20907205;28;19956;-69
2021/11/19 00:20:34;;;;;;;34.50;15.65;;;;;;;4.24;92.67;101991.50;20907246;28;20067;-70
2021/11/19 00:30:38;;;;;;;33.70;15.20;;;;;;;4.37;92.29;101989.38;20905632;28;20351;-68
2021/11/19 00:40:47;;;;;;;30.33;14.82;;;;;;;4.51;91.72;101982.09;20905699;28;20044;-70
2021/11/19 00:50:56;;;;;;;36.00;14.82;;;;;;;4.60;92.51;101994.50;20905560;28;20045;-70
2021/11/19 01:01:02;;;;;;;34.13;14.82;;;;;;;4.72;91.74;101994.91;20865806;28;1158117;-69
2021/11/19 01:11:07;;;;;;;33.65;14.32;;;;;;;4.86;92.41;101985.84;20908357;28;20056;-69
2021/11/19 01:21:14;;;;;;;30.67;14.45;;;;;;;4.99;92.42;101992.34;20907669;28;20045;-71
2021/11/19 01:31:20;;;;;;;32.78;13.18;;;;;;;5.17;91.83;101998.94;20907640;28;20053;-70
2021/11/19 01:41:27;;;;;;;29.08;12.77;;;;;;;5.21;91.93;102008.59;20905939;28;20056;-70
2021/11/19 01:51:36;;;;;;;32.30;13.18;;;;;;;5.27;92.10;102006.19;20904084;28;20049;-71
2021/11/19 02:01:55;;;;;;;34.55;14.40;;;;;;;5.39;92.20;102003.97;20903524;28;20106;-71
2021/11/19 02:12:12;;;;;;;30.42;13.75;;;;;;;5.47;91.87;101994.72;20903563;28;20470;-70
2021/11/19 02:22:22;;;;;;;32.35;13.55;;;;;;;5.48;92.01;101972.22;20903325;28;20421;-70
2021/11/19 02:32:33;;;;;;;31.17;13.32;;;;;;;5.54;91.94;101987.97;20901966;28;20179;-70
2021/11/19 02:42:42;;;;;;;31.23;14.38;;;;;;;5.67;91.37;101984.91;20900719;28;20418;-70
2021/11/19 02:52:46;;;;;;;31.35;14.55;;;;;;;5.66;91.46;101980.56;20900554;28;20049;-70
2021/11/19 03:02:48;;;;;;;31.63;14.20;;;;;;;5.72;91.29;101962.56;20900188;28;20114;-70
2021/11/19 03:12:51;;;;;;;39.22;15.77;;;;;;;5.79;91.60;101981.78;20898438;28;20083;-70
2021/11/19 03:22:54;;;;;;;39.13;16.40;;;;;;;5.79;91.66;101984.38;20899573;28;20041;-70
2021/11/19 03:32:55;;;;;;;38.30;15.82;;;;;;;5.82;91.54;101990.56;20896532;28;20053;-69
2021/11/19 03:43:00;;;;;;;39.17;15.75;;;;;;;5.84;91.78;101983.69;20899046;28;20474;-69
2021/11/19 03:53:02;;;;;;;37.30;15.63;;;;;;;5.88;91.82;101990.72;20898738;28;20539;-70
2021/11/19 04:03:05;;;;;;;34.25;14.85;;;;;;;5.95;91.08;102002.25;20896954;28;20107;-69
2021/11/19 04:13:08;;;;;;;35.55;15.30;;;;;;;6.00;91.15;101999.78;20899388;28;20049;-70
2021/11/19 04:23:10;;;;;;;36.00;15.30;;;;;;;5.99;91.64;101995.38;20912020;28;20075;-69
2021/11/19 04:33:12;;;;;;;37.22;15.52;;;;;;;6.04;91.39;101999.91;20911083;28;20049;-69
2021/11/19 04:43:14;;;;;;;32.08;14.52;;;;;;;6.06;91.42;101995.63;20911796;28;20106;-70
2021/11/19 04:53:18;;;;;;;38.20;15.45;;;;;;;6.10;91.37;101978.41;20910567;28;20476;-70
2021/11/19 05:03:21;;;;;;;42.27;16.80;;;;;;;6.09;91.47;101968.84;20908013;28;20053;-70
2021/11/19 05:13:25;;;;;;;37.90;17.45;;;;;;;6.22;90.65;101959.63;20906335;28;20045;-69
2021/11/19 05:23:27;;;;;;;38.65;16.45;;;;;;;6.09;92.03;101963.63;20906106;28;20083;-70
2021/11/19 05:33:30;;;;;;;37.03;14.85;;;;;;;6.19;91.66;101963.03;20905543;28;20087;-69
2021/11/19 05:43:34;;;;;;;36.13;14.20;;;;;;;6.19;91.76;101970.84;20905557;28;20106;-70
2021/11/19 05:53:35;;;;;;;36.17;14.07;;;;;;;6.19;91.78;101975.19;20904842;28;20498;-70
2021/11/19 06:03:39;;;;;;;30.85;13.35;;;;;;;6.27;91.60;101984.91;20903324;28;20049;-71
2021/11/19 06:13:53;;;;;;;26.15;11.40;;;;;;;6.24;91.99;101990.06;20903541;28;20041;-70
2021/11/19 06:23:58;;;;;;;27.23;11.13;;;;;;;6.29;91.05;101998.00;20902936;28;20419;-69
2021/11/19 06:34:01;;;;;;;25.73;10.43;;;;;;;6.34;90.30;102005.06;20902248;28;20128;-69
2021/11/19 06:44:03;;;;;;;22.45;10.85;;;;;;;6.44;89.13;102014.00;20900612;28;20044;-69
2021/11/19 06:54:05;;;;;;;23.70;10.40;;;;;;;6.46;88.57;102021.84;20900494;28;20098;-69
2021/11/19 07:04:07;;;;;;;26.65;9.27;;;;;;;6.52;89.18;102022.03;20899754;28;20599;-70
2021/11/19 07:14:09;;;;;;;21.67;10.93;;;;;;;6.62;87.94;102029.25;20899737;28;20498;-69
2021/11/19 07:24:11;;;;;;;22.77;11.00;;;;;;;6.61;88.56;102024.84;20899770;28;20079;-70
2021/11/19 07:34:14;;;;;;;21.33;10.20;;;;;;;6.58;88.51;102037.81;20899048;28;20378;-69
2021/11/19 07:44:16;;;;;;;20.83;10.45;;;;;;;6.69;88.55;102049.38;20907665;28;20103;-67
2021/11/19 07:54:18;;;;;;;24.52;10.48;;;;;;;6.74;87.84;102052.97;20911773;28;20041;-68
2021/11/19 08:04:20;;;;;;;20.38;11.00;;;;;;;6.81;88.19;102052.31;20933483;28;20082;-68
2021/11/19 08:14:22;;;;;;;25.67;11.65;;;;;;;6.85;88.12;102059.38;20953094;28;20465;-68
2021/11/19 08:24:25;;;;;;;21.05;11.18;;;;;;;6.82;87.69;102067.09;20934757;28;20110;-68
2021/11/19 08:34:26;;;;;;;28.73;11.40;;;;;;;6.89;87.35;102075.94;20971300;28;20037;-68
2021/11/19 08:44:28;;;;;;;22.75;11.20;;;;;;;6.89;87.33;102082.00;20910702;28;20057;-68
2021/11/19 08:54:50;;;;;;;23.60;10.90;;;;;;;7.03;85.86;102084.09;20911043;28;20076;-68
2021/11/19 09:04:54;;;;;;;26.27;11.45;;;;;;;7.18;85.72;102074.06;20901573;28;20049;-68
2021/11/19 09:14:56;;;;;;;20.93;10.40;;;;;;;7.31;85.52;102059.63;20944752;28;20048;-67
2021/11/19 09:24:59;;;;;;;24.83;10.80;;;;;;;7.34;84.47;102068.41;20982963;28;20056;-67
2021/11/19 09:35:01;;;;;;;26.40;10.30;;;;;;;7.28;84.44;102075.16;20983211;28;20102;-67
2021/11/19 09:45:31;;;;;;;22.92;10.63;;;;;;;7.38;85.04;102083.28;20982027;28;20273;-67
2021/11/19 09:55:36;;;;;;;19.20;8.68;;;;;;;7.57;84.53;102078.47;20981869;28;20044;-68
2021/11/19 10:06:11;;;;;;;22.17;9.13;;;;;;;7.70;83.33;102085.75;20981320;28;20060;-66
2021/11/19 10:16:27;;;;;;;22.02;9.27;;;;;;;7.83;84.11;102071.28;20950133;28;20041;-66
2021/11/19 10:26:34;;;;;;;21.90;7.85;;;;;;;8.03;82.31;102069.09;20915921;28;20426;-67
2021/11/19 10:36:40;;;;;;;17.33;7.55;;;;;;;7.89;83.04;102056.63;20895160;28;20041;-67
2021/11/19 10:47:00;;;;;;;23.00;8.65;;;;;;;7.95;83.41;102051.56;20895008;28;20045;-67
2021/11/19 10:57:50;;;;;;;19.33;8.65;;;;;;;7.96;84.07;102037.66;20894146;28;20106;-66
2021/11/19 11:08:11;;;;;;;17.92;8.52;;;;;;;8.09;82.36;102028.34;20893955;28;20486;-67
2021/11/19 11:18:15;;;;;;;19.92;8.63;;;;;;;8.12;82.51;102018.00;20963114;28;20040;-67
2021/11/19 11:28:36;;;;;;;23.30;10.15;;;;;;;8.12;82.15;102006.69;20987915;28;20052;-67
2021/11/19 11:39:03;;;;;;;22.75;10.65;;;;;;;8.31;81.44;102013.13;20989587;28;20056;-67
2021/11/19 11:49:08;;;;;;;21.15;9.05;;;;;;;8.42;81.76;102002.06;20991726;28;20090;-67
2021/11/19 11:59:26;;;;;;;;;;;;;;;8.33;82.40;101991.44;20980244;28;20057;-69
2021/11/19 12:10:18;;;;;;;16.77;8.80;;;;;;;8.41;82.68;101983.78;20983812;28;20023;-68
2021/11/19 12:20:33;;;;;;;19.15;9.63;;;;;;;8.39;82.32;101975.06;20987463;28;20048;-69
2021/11/19 12:30:45;;;;;;;24.10;10.30;;;;;;;8.40;82.56;101976.81;20987152;28;20115;-68
2021/11/19 12:40:55;;;;;;;18.23;9.98;;;;;;;8.33;83.08;101969.66;21010133;28;20040;-68
2021/11/19 12:51:18;;;;;;;22.08;9.88;;;;;;;8.45;83.12;101959.50;21047906;28;20106;-67
2021/11/19 13:01:29;;;;;;;20.15;9.35;;;;;;;8.38;83.27;101953.28;20985306;28;20117;-68
2021/11/19 13:11:33;;;;;;;19.88;9.80;;;;;;;8.42;83.46;101944.66;20982049;28;20102;-67
2021/11/19 13:21:35;;;;;;;17.00;9.57;;;;;;;8.36;83.99;101941.03;20983919;28;20070;-67
2021/11/19 13:31:40;;;;;;;19.08;9.32;;;;;;;8.38;83.88;101937.63;20982099;28;20048;-68
2021/11/19 13:42:02;;;;;;;19.07;9.03;;;;;;;8.45;84.30;101926.44;20983328;28;20049;-67
2021/11/19 13:52:26;;;;;;;21.15;11.38;;;;;;;8.34;84.44;101920.13;20972803;28;20110;-67
2021/11/19 14:02:47;;;;;;;21.02;11.40;;;;;;;8.33;84.14;101897.47;20896191;28;20407;-67
2021/11/19 14:13:00;;;;;;;22.33;11.02;;;;;;;8.29;84.59;101898.31;20922029;28;20074;-67
2021/11/19 14:23:13;;;;;;;24.25;11.60;;;;;;;8.26;84.42;101906.06;20978974;28;20052;-68
2021/11/19 14:33:32;;;;;;;22.45;11.60;;;;;;;8.23;85.44;101900.78;20977987;28;20044;-67
2021/11/19 14:43:40;;;;;;;26.58;12.77;;;;;;;8.17;85.71;101895.47;20929099;28;20055;-68
2021/11/19 14:53:52;;;;;;;25.23;13.48;;;;;;;8.10;85.89;101899.69;20894861;28;20505;-68
2021/11/19 15:03:55;;;;;;;27.40;13.20;;;;;;;8.09;85.74;101899.66;20889771;28;20057;-67
2021/11/19 15:14:11;;;;;;;23.20;13.23;;;;;;;8.05;86.29;101905.66;20920788;28;20463;-68
2021/11/19 15:24:13;;;;;;;27.15;13.25;;;;;;;8.03;86.37;101905.63;20968370;28;20098;-68
2021/11/19 15:34:31;;;;;;;24.25;12.30;;;;;;;7.96;87.00;101902.03;20968813;28;20412;-67
2021/11/19 15:44:37;;;;;;;24.67;12.82;;;;;;;7.91;86.90;101895.00;20969871;28;20102;-67
2021/11/19 15:54:38;;;;;;;26.50;11.80;;;;;;;7.85;87.22;101905.28;20967435;28;20052;-67
2021/11/19 16:04:46;;;;;;;25.45;12.82;;;;;;;7.93;87.31;101906.31;20967378;28;20052;-68
2021/11/19 16:14:47;;;;;;;19.88;10.93;;;;;;;7.91;87.52;101901.09;20978068;28;20052;-67
2021/11/19 16:24:49;;;;;;;21.05;12.57;;;;;;;7.86;87.68;101910.53;20982133;28;20078;-67
2021/11/19 16:34:51;;;;;;;25.48;13.50;;;;;;;7.84;88.16;101911.34;20980988;28;20048;-68
2021/11/19 16:44:53;;;;;;;26.10;13.27;;;;;;;7.82;88.52;101913.94;20980272;28;20094;-70
2021/11/19 16:54:54;;;;;;;27.30;14.30;;;;;;;7.85;88.08;101918.31;20980403;28;20044;-68
2021/11/19 17:04:56;;;;;;;28.60;15.05;;;;;;;7.85;88.78;101919.19;20979393;28;20057;-68
2021/11/19 17:14:57;;;;;;;21.23;11.60;;;;;;;7.89;88.83;101926.22;20970185;28;20443;-68
2021/11/19 17:24:59;;;;;;;23.20;11.32;;;;;;;7.77;90.15;101940.78;20977610;28;20452;-69
2021/11/19 17:35:01;;;;;;;21.85;11.48;;;;;;;7.71;90.72;101941.50;20975861;28;20718;-68
2021/11/19 17:45:03;;;;;;;21.58;12.68;;;;;;;7.65;91.46;101949.19;20973636;28;20040;-69
2021/11/19 17:55:10;;;;;;;30.67;15.68;;;;;;;7.61;92.53;101949.97;20974787;28;20098;-68
2021/11/19 18:05:13;;;;;;;26.42;14.38;;;;;;;7.64;93.46;101947.44;20971612;28;20048;-69
2021/11/19 18:15:17;;;;;;;25.52;13.93;;;;;;;7.63;93.19;101945.69;20973448;28;20482;-68
2021/11/19 18:25:22;;;;;;;24.47;13.47;;;;;;;7.62;94.01;101951.75;20973556;28;20052;-69
2021/11/19 18:35:24;;;;;;;;;;;;;;;7.51;94.44;101927.19;20970181;28;20044;-68
2021/11/19 18:45:26;;;;;;;23.88;13.38;;;;;;;7.52;94.54;101940.25;20971733;28;19920;-68
2021/11/19 18:55:31;;;;;;;32.30;14.82;;;;;;;7.55;94.11;101932.50;20967240;28;20053;-68
2021/11/19 19:05:36;;;;;;;33.80;18.30;;;;;;;7.52;94.52;101923.72;20968845;28;20044;-68
2021/11/19 19:15:40;;;;;;;28.70;15.85;;;;;;;7.50;94.62;101938.47;20970303;28;20435;-68
2021/11/19 19:25:45;;;;;;;28.57;14.50;;;;;;;7.39;95.19;101933.88;20969113;28;20078;-69
2021/11/19 19:35:51;;;;;;;30.70;15.88;;;;;;;7.42;95.42;101928.72;20965525;28;20048;-68
2021/11/19 19:45:53;;;;;;;31.83;14.50;;;;;;;7.44;95.03;101931.38;20973449;28;20509;-68
2021/11/19 19:55:56;;;;;;;29.23;15.07;;;;;;;7.43;95.34;101938.34;20984326;28;20128;-68
2021/11/19 20:05:58;;;;;;;31.17;17.42;;;;;;;7.40;95.17;101935.66;20977465;28;20054;-69
2021/11/19 20:16:00;;;;;;;33.00;17.48;;;;;;;7.45;95.14;101933.13;20987765;28;20044;-69
2021/11/19 20:26:09;;;;;;;33.08;17.20;;;;;;;7.38;95.37;101942.56;20987583;28;20067;-68
2021/11/19 20:36:12;;;;;;;34.10;18.40;;;;;;;7.45;94.75;101949.66;20987772;28;20048;-68
2021/11/19 20:46:15;;;;;;;30.58;16.77;;;;;;;7.41;95.18;101945.22;20986509;28;20129;-68
2021/11/19 20:56:24;;;;;;;34.90;18.60;;;;;;;7.35;95.39;101932.06;20985567;28;20412;-68
2021/11/19 21:06:26;;;;;;;34.60;17.42;;;;;;;7.36;95.36;101943.38;20985163;28;20106;-68
2021/11/19 21:16:28;;;;;;;38.70;18.02;;;;;;;7.45;94.64;101939.22;20928601;28;20463;-68
2021/11/19 21:26:36;;;;;;;41.78;21.08;;;;;;;7.37;95.25;101934.69;20900159;28;20495;-68
2021/11/19 21:36:39;;;;;;;40.42;20.23;;;;;;;7.37;95.22;101929.47;20898823;28;20057;-71
2021/11/19 21:46:42;;;;;;;39.08;20.30;;;;;;;7.32;95.35;101931.09;20898314;28;20115;-68
2021/11/19 21:56:47;;;;;;;36.88;19.38;;;;;;;7.32;95.37;101934.59;20898818;28;20049;-68
2021/11/19 22:06:51;;;;;;;42.33;22.17;;;;;;;7.32;95.36;101918.97;20895484;28;20508;-68
2021/11/19 22:16:53;;;;;;;43.20;21.77;;;;;;;7.35;94.65;101931.19;20955346;28;20098;-68
2021/11/19 22:26:57;;;;;;;40.03;18.55;;;;;;;7.29;95.15;101916.31;20979731;28;20052;-67
2021/11/19 22:37:02;;;;;;;42.50;20.73;;;;;;;7.33;95.10;101912.00;20977082;28;20056;-68
2021/11/19 22:47:06;;;;;;;41.53;19.50;;;;;;;7.30;95.50;101906.75;20976260;28;20101;-68
2021/11/19 22:57:09;;;;;;;46.70;21.30;;;;;;;7.31;95.01;101904.19;20976136;28;20086;-69
2021/11/19 23:07:14;;;;;;;36.65;19.38;;;;;;;7.28;95.40;101891.09;20969563;28;20083;-70
2021/11/19 23:17:26;;;;;;;45.20;21.80;;;;;;;7.29;94.69;101903.28;20982926;28;20056;-70
2021/11/19 23:27:32;;;;;;;43.70;20.00;;;;;;;7.28;95.27;101893.72;20983112;28;20086;-69
2021/11/19 23:37:36;;;;;;;42.92;20.70;;;;;;;7.25;95.30;101888.41;20996918;28;20049;-69
2021/11/19 23:47:38;;;;;;;42.33;20.13;;;;;;;7.33;95.17;101892.09;20981120;28;20114;-69
2021/11/19 23:57:40;;;;;;;48.15;21.45;;;;;;;7.30;94.68;101872.88;20982063;28;20481;-69
